Time;durP1;ratioP1;P1;durP2;ratioP2;P2;SDS_P1;SDS_P2;PMS_P1;PMS_P2;Temp;Humidity;BMP_temperature;BMP_pressure;BME280_temperature;BME280_humidity;BME280_pressure;Samples;Min_cycle;Max_cycle;Signal;HPM_P1;HPM_P2
2024/04/14 00:00:17;;;;;;;19.05;4.80;;;;;;;14.21;69.43;101685.19;5369582;26;20019;-52
2024/04/14 00:02:43;;;;;;;21.63;4.20;;;;;;;14.43;67.50;101686.78;5368244;26;20744;-54
2024/04/14 00:05:09;;;;;;;12.98;3.22;;;;;;;13.67;68.20;101693.63;5356414;26;20485;-54
2024/04/14 00:07:37;;;;;;;10.40;3.15;;;;;;;13.85;67.28;101698.22;5370006;26;19996;-52
2024/04/14 00:10:03;;;;;;;9.70;3.13;;;;;;;13.54;66.73;101708.06;5358480;26;20015;-54
2024/04/14 00:12:29;;;;;;;11.85;2.30;;;;;;;13.66;64.95;101708.00;5374376;26;20011;-55
2024/04/14 00:14:55;;;;;;;12.52;2.63;;;;;;;13.62;64.12;101706.59;5356031;26;20005;-52
2024/04/14 00:17:21;;;;;;;11.82;2.40;;;;;;;13.82;63.46;101703.88;5369754;26;20011;-55
2024/04/14 00:19:52;;;;;;;9.38;2.08;;;;;;;13.69;62.53;101713.97;5389548;26;20365;-54
2024/04/14 00:22:18;;;;;;;10.70;1.92;;;;;;;13.71;62.82;101714.66;5366085;26;20005;-56
2024/04/14 00:24:46;;;;;;;16.30;2.35;;;;;;;13.37;62.85;101718.53;5345460;26;20001;-55
2024/04/14 00:27:12;;;;;;;18.70;3.85;;;;;;;12.81;65.27;101726.06;5364337;26;20016;-55
2024/04/14 00:29:38;;;;;;;6.30;1.90;;;;;;;13.09;64.47;101722.72;5371096;26;19996;-52
2024/04/14 00:32:04;;;;;;;7.70;1.85;;;;;;;12.83;64.36;101724.91;5371359;26;20081;-54
2024/04/14 00:34:30;;;;;;;14.98;2.22;;;;;;;13.71;61.12;101737.91;5352644;26;20004;-58
2024/04/14 00:36:55;;;;;;;13.82;1.98;;;;;;;13.64;60.61;101739.44;5360976;26;20463;-51
2024/04/14 00:39:22;;;;;;;12.45;2.00;;;;;;;13.76;59.39;101725.00;5339424;26;20004;-53
2024/04/14 00:41:48;;;;;;;14.00;2.30;;;;;;;13.58;59.51;101738.13;5371885;26;20011;-54
2024/04/14 00:44:13;;;;;;;7.30;1.50;;;;;;;12.68;60.91;101734.22;5369924;26;20360;-54
2024/04/14 00:46:39;;;;;;;16.20;2.10;;;;;;;13.44;58.68;101719.69;5380197;26;20345;-54
2024/04/14 00:49:05;;;;;;;11.75;2.00;;;;;;;13.24;58.56;101734.81;5358652;26;20833;-56
2024/04/14 00:51:31;;;;;;;5.90;1.52;;;;;;;13.13;57.59;101735.72;5382176;26;20000;-54
2024/04/14 00:53:57;;;;;;;11.48;1.65;;;;;;;12.74;57.74;101741.75;5378364;26;20066;-51
2024/04/14 00:56:23;;;;;;;8.25;1.63;;;;;;;12.38;57.77;101745.59;5364536;26;20004;-55
2024/04/14 00:58:50;;;;;;;6.65;1.33;;;;;;;12.20;58.04;101745.25;5366810;26;20000;-57
2024/04/14 01:01:16;;;;;;;7.70;1.42;;;;;;;12.54;57.71;101753.19;5360383;26;20000;-53
2024/04/14 01:03:42;;;;;;;10.82;2.53;;;;;;;12.95;56.53;101747.97;5358578;26;20005;-52
2024/04/14 01:06:08;;;;;;;10.48;1.70;;;;;;;13.19;55.38;101747.75;5367632;26;20004;-54
2024/04/14 01:08:34;;;;;;;10.13;1.77;;;;;;;13.33;55.21;101750.09;5367961;26;20000;-54
2024/04/14 01:11:00;;;;;;;7.38;2.13;;;;;;;12.69;56.02;101754.66;5394157;26;20383;-58
2024/04/14 01:13:26;;;;;;;10.65;1.98;;;;;;;12.88;55.52;101759.34;5362188;26;20347;-53
2024/04/14 01:15:52;;;;;;;9.35;1.58;;;;;;;13.31;54.70;101762.75;5368710;26;20069;-55
2024/04/14 01:18:17;;;;;;;9.00;2.00;;;;;;;12.94;56.14;101762.34;5335029;26;20533;-54
2024/04/14 01:20:43;;;;;;;10.73;2.22;;;;;;;12.98;56.08;101774.47;5381114;26;20451;-52
2024/04/14 01:23:09;;;;;;;9.90;2.15;;;;;;;13.30;55.48;101776.25;5372156;26;20016;-55
2024/04/14 01:25:35;;;;;;;6.28;1.65;;;;;;;12.98;55.69;101768.28;5369829;26;20400;-53
2024/04/14 01:28:01;;;;;;;9.18;1.60;;;;;;;13.08;55.45;101777.25;5336323;26;20503;-53
2024/04/14 01:30:27;;;;;;;8.00;2.00;;;;;;;12.98;55.13;101777.16;5368860;26;20638;-51
2024/04/14 01:32:53;;;;;;;8.10;1.45;;;;;;;13.12;55.37;101781.34;5398831;26;20012;-48
2024/04/14 01:35:19;;;;;;;18.48;2.50;;;;;;;13.01;56.42;101786.78;5367078;26;20525;-54
2024/04/14 01:37:45;;;;;;;11.50;2.20;;;;;;;13.20;55.87;101792.28;5371110;26;20000;-52
2024/04/14 01:40:11;;;;;;;8.80;1.50;;;;;;;13.27;55.63;101792.59;5397715;26;20055;-53
2024/04/14 01:42:37;;;;;;;11.88;1.52;;;;;;;13.20;56.65;101791.41;5370290;26;20401;-51
2024/04/14 01:45:03;;;;;;;13.57;1.85;;;;;;;13.33;55.58;101787.56;5369230;26;20000;-52
2024/04/14 01:47:29;;;;;;;10.88;2.45;;;;;;;13.13;56.53;101801.78;5360245;26;20000;-54
2024/04/14 01:49:55;;;;;;;9.77;2.58;;;;;;;13.23;55.93;101800.03;5371302;26;20000;-55
2024/04/14 01:52:21;;;;;;;11.88;2.30;;;;;;;12.57;58.58;101801.09;5368344;26;20051;-57
2024/04/14 01:54:47;;;;;;;12.07;2.05;;;;;;;12.58;57.26;101803.66;5370968;26;20448;-54
2024/04/14 01:57:12;;;;;;;10.98;1.65;;;;;;;12.76;57.46;101820.03;5385964;26;19996;-53
2024/04/14 01:59:38;;;;;;;16.52;1.92;;;;;;;12.28;58.42;101816.81;5352529;26;20000;-57
2024/04/14 02:02:04;;;;;;;10.98;2.08;;;;;;;12.07;59.25;101813.16;5343846;26;20036;-54
2024/04/14 02:04:30;;;;;;;10.05;1.60;;;;;;;11.95;59.70;101813.16;5391205;26;20004;-53
2024/04/14 02:06:55;;;;;;;9.35;2.40;;;;;;;11.93;59.35;101823.09;5370689;26;20004;-51
2024/04/14 02:09:22;;;;;;;8.93;1.75;;;;;;;12.23;58.12;101814.50;5354800;26;20016;-56
2024/04/14 02:11:48;;;;;;;10.27;1.65;;;;;;;11.77;58.50;101814.63;5360337;26;20015;-54
2024/04/14 02:14:14;;;;;;;8.73;1.80;;;;;;;12.12;57.59;101808.31;5368514;26;20019;-54
2024/04/14 02:16:40;;;;;;;10.93;2.17;;;;;;;11.69;58.68;101818.84;5356675;26;20020;-51
2024/04/14 02:19:05;;;;;;;7.80;1.80;;;;;;;12.05;57.88;101821.31;5364385;26;20395;-50
2024/04/14 02:21:31;;;;;;;10.85;2.20;;;;;;;12.21;56.35;101820.94;5391825;26;20000;-52
2024/04/14 02:23:57;;;;;;;10.82;2.35;;;;;;;12.11;56.72;101823.50;5368252;26;20004;-53
2024/04/14 02:26:23;;;;;;;13.73;1.92;;;;;;;12.20;56.41;101821.91;5368851;26;20008;-52
2024/04/14 02:28:49;;;;;;;10.77;1.65;;;;;;;11.71;57.19;101833.78;5369081;26;20339;-50
2024/04/14 02:31:15;;;;;;;13.98;1.70;;;;;;;12.17;56.10;101823.00;5365763;26;20596;-54
2024/04/14 02:33:41;;;;;;;9.30;1.95;;;;;;;11.68;56.91;101826.00;5361076;26;20019;-53
2024/04/14 02:36:07;;;;;;;10.52;1.95;;;;;;;11.76;57.19;101838.75;5342628;26;20004;-54
2024/04/14 02:38:33;;;;;;;11.57;2.13;;;;;;;12.11;55.55;101836.00;5364204;26;19996;-54
2024/04/14 02:41:02;;;;;;;9.48;1.70;;;;;;;11.83;55.63;101834.66;5354173;26;20081;-55
2024/04/14 02:43:29;;;;;;;7.20;1.80;;;;;;;11.63;55.26;101841.53;5365461;26;20335;-54
2024/04/14 02:45:55;;;;;;;15.32;1.83;;;;;;;11.57;55.82;101839.31;5359498;26;20016;-51
2024/04/14 02:48:22;;;;;;;11.02;2.08;;;;;;;12.19;53.62;101844.28;5345581;26;20016;-56
2024/04/14 02:50:48;;;;;;;11.07;1.83;;;;;;;11.98;54.03;101850.34;5363472;26;20008;-55
2024/04/14 02:53:14;;;;;;;12.30;1.90;;;;;;;11.94;53.86;101853.34;5370200;26;20456;-56
2024/04/14 02:55:40;;;;;;;15.45;1.55;;;;;;;11.65;52.67;101863.59;5358154;26;20038;-54
2024/04/14 02:58:07;;;;;;;11.98;1.85;;;;;;;11.71;52.76;101862.31;5356894;26;20012;-56
2024/04/14 03:00:33;;;;;;;8.95;1.27;;;;;;;11.86;51.95;101869.97;5364324;26;20004;-55
2024/04/14 03:02:59;;;;;;;12.82;1.95;;;;;;;11.75;51.32;101867.28;5365346;26;20020;-54
2024/04/14 03:05:26;;;;;;;10.52;1.70;;;;;;;11.82;51.18;101862.31;5363767;26;20004;-51
2024/04/14 03:07:52;;;;;;;11.40;1.80;;;;;;;11.99;51.30;101856.50;5367803;26;20012;-51
2024/04/14 03:10:19;;;;;;;12.55;1.70;;;;;;;11.54;51.41;101868.91;5394657;26;20004;-54
2024/04/14 03:12:45;;;;;;;10.57;1.70;;;;;;;12.06;49.77;101860.41;5367073;26;20001;-50
2024/04/14 03:15:11;;;;;;;5.13;1.45;;;;;;;11.82;50.27;101868.53;5364595;26;20001;-56
2024/04/14 03:17:38;;;;;;;10.63;1.77;;;;;;;11.65;50.04;101868.94;5358098;26;20012;-54
2024/04/14 03:20:05;;;;;;;11.98;2.28;;;;;;;11.75;49.86;101875.31;5366392;26;20652;-52
2024/04/14 03:22:34;;;;;;;14.10;1.83;;;;;;;12.17;49.04;101862.25;5368038;26;20019;-52
2024/04/14 03:25:00;;;;;;;12.30;1.70;;;;;;;12.10;49.06;101866.38;5362870;26;20324;-56
2024/04/14 03:27:25;;;;;;;10.48;1.65;;;;;;;12.13;48.72;101869.63;5359622;26;20008;-52
2024/04/14 03:29:51;;;;;;;8.82;1.80;;;;;;;12.07;48.48;101863.94;5363602;26;20012;-51
2024/04/14 03:32:17;;;;;;;12.25;1.67;;;;;;;11.92;49.48;101856.13;5367857;26;20004;-55
2024/04/14 03:34:43;;;;;;;11.32;2.40;;;;;;;11.92;49.88;101868.66;5359931;26;20399;-53
2024/04/14 03:37:09;;;;;;;9.75;1.73;;;;;;;11.75;50.72;101875.31;5366765;26;20098;-56
2024/04/14 03:39:36;;;;;;;16.15;3.38;;;;;;;11.93;50.49;101868.53;5363158;26;20343;-49
2024/04/14 03:42:02;;;;;;;14.90;2.30;;;;;;;11.65;50.91;101890.31;5368417;26;20541;-53
2024/04/14 03:44:28;;;;;;;11.55;2.40;;;;;;;11.72;51.16;101891.53;5355883;26;20011;-51
2024/04/14 03:46:54;;;;;;;15.05;1.80;;;;;;;11.76;51.56;101894.84;5316142;26;20488;-55
2024/04/14 03:49:20;;;;;;;8.82;1.70;;;;;;;11.93;51.09;101887.22;5364463;26;20325;-57
2024/04/14 03:51:45;;;;;;;16.25;1.95;;;;;;;11.81;51.73;101893.53;5349749;26;20061;-55
2024/04/14 03:54:11;;;;;;;14.40;1.77;;;;;;;11.59;52.36;101894.28;5373104;26;20077;-55
2024/04/14 03:56:37;;;;;;;12.48;1.67;;;;;;;11.62;52.50;101906.59;5370305;26;20000;-54
2024/04/14 03:59:03;;;;;;;9.95;2.03;;;;;;;11.39;52.68;101902.06;5372482;26;20081;-53
2024/04/14 04:01:29;;;;;;;11.20;2.03;;;;;;;11.48;52.48;101898.72;5370691;26;20065;-51
2024/04/14 04:03:55;;;;;;;13.10;2.20;;;;;;;11.51;52.86;101891.31;5366983;26;20011;-50
2024/04/14 04:06:21;;;;;;;16.02;2.55;;;;;;;11.62;52.39;101895.03;5370718;26;20004;-55
2024/04/14 04:08:47;;;;;;;10.05;1.88;;;;;;;11.70;52.37;101900.66;5371523;26;20014;-50
2024/04/14 04:11:12;;;;;;;14.38;2.05;;;;;;;11.59;52.00;101901.44;5371663;26;20004;-51
2024/04/14 04:13:38;;;;;;;9.48;1.77;;;;;;;11.74;51.84;101888.75;5374316;26;20001;-54
2024/04/14 04:16:06;;;;;;;10.38;2.38;;;;;;;11.57;51.88;101895.38;5368070;26;20074;-55
2024/04/14 04:18:33;;;;;;;10.73;2.00;;;;;;;11.57;52.50;101890.88;5384134;26;20011;-52
2024/04/14 04:21:01;;;;;;;9.63;1.95;;;;;;;11.61;52.77;101883.50;5378017;26;20324;-54
2024/04/14 04:23:28;;;;;;;15.73;2.30;;;;;;;11.72;52.03;101899.56;5353422;26;20004;-52
2024/04/14 04:25:56;;;;;;;9.57;2.00;;;;;;;11.61;52.21;101896.88;5362575;26;20015;-56
2024/04/14 04:28:22;;;;;;;9.40;1.52;;;;;;;11.65;52.67;101895.66;5392897;26;20004;-53
2024/04/14 04:30:49;;;;;;;12.75;1.88;;;;;;;11.49;52.75;101898.63;5358283;26;20023;-52
2024/04/14 04:33:14;;;;;;;10.52;1.77;;;;;;;11.67;52.81;101909.75;5332592;26;20004;-49
2024/04/14 04:35:50;;;;;;;9.60;2.05;;;;;;;11.18;54.50;101910.72;5349323;26;20336;-54
2024/04/14 04:38:16;;;;;;;10.32;2.08;;;;;;;11.43;53.75;101909.75;5363780;26;20089;-50
2024/04/14 04:40:42;;;;;;;14.95;2.33;;;;;;;10.81;55.45;101909.03;5356129;26;20004;-51
2024/04/14 04:43:07;;;;;;;8.55;1.60;;;;;;;11.14;55.63;101917.25;5372093;26;20501;-51
2024/04/14 04:45:33;;;;;;;10.10;2.05;;;;;;;11.41;55.15;101921.50;5368774;26;20019;-54
2024/04/14 04:47:59;;;;;;;13.38;2.00;;;;;;;11.38;54.83;101927.06;5349250;26;20014;-50
2024/04/14 04:50:24;;;;;;;10.02;1.90;;;;;;;11.41;54.98;101940.19;5394153;26;20004;-56
2024/04/14 04:52:50;;;;;;;11.70;1.90;;;;;;;11.19;55.49;101938.25;5364306;26;20011;-54
2024/04/14 04:55:16;;;;;;;8.57;1.80;;;;;;;11.18;55.74;101940.06;5341653;26;20012;-55
2024/04/14 04:57:41;;;;;;;8.70;1.83;;;;;;;11.31;55.40;101940.00;5365934;26;21894;-54
2024/04/14 05:00:07;;;;;;;16.35;2.00;;;;;;;11.49;55.10;101933.31;5369984;26;20015;-53
2024/04/14 05:02:33;;;;;;;18.77;2.42;;;;;;;11.35;55.21;101927.31;5360286;26;19996;-56
2024/04/14 05:04:59;;;;;;;9.90;1.50;;;;;;;11.42;55.16;101929.41;5332217;26;20338;-54
2024/04/14 05:07:24;;;;;;;13.20;2.85;;;;;;;11.22;55.75;101923.84;5390068;26;20360;-57
2024/04/14 05:09:52;;;;;;;9.93;2.40;;;;;;;11.62;54.85;101924.41;5371759;26;20011;-57
2024/04/14 05:12:18;;;;;;;11.60;2.42;;;;;;;11.53;54.06;101933.94;5361646;26;20004;-51
2024/04/14 05:14:44;;;;;;;11.35;2.80;;;;;;;11.58;54.27;101932.63;5358212;26;20359;-50
2024/04/14 05:17:10;;;;;;;14.13;2.20;;;;;;;11.65;54.55;101943.72;5363764;26;20004;-55
2024/04/14 05:19:36;;;;;;;10.98;1.73;;;;;;;11.81;54.37;101944.28;5368997;26;20019;-56
2024/04/14 05:22:01;;;;;;;22.17;1.95;;;;;;;11.73;54.21;101953.81;5378136;26;20448;-55
2024/04/14 05:24:27;;;;;;;13.20;1.80;;;;;;;11.75;54.37;101955.44;5352498;26;19996;-55
2024/04/14 05:26:53;;;;;;;9.07;1.80;;;;;;;11.58;54.39;101958.50;5363532;26;20015;-55
2024/04/14 05:29:18;;;;;;;7.93;1.80;;;;;;;11.74;54.81;101950.19;5364677;26;20011;-53
2024/04/14 05:31:44;;;;;;;8.27;1.70;;;;;;;11.64;54.19;101959.88;5340479;26;20028;-53
2024/04/14 05:34:10;;;;;;;17.80;2.22;;;;;;;11.60;55.17;101953.91;5363483;26;20004;-52
2024/04/14 05:36:36;;;;;;;10.23;1.70;;;;;;;11.69;54.41;101955.03;5359904;26;20435;-56
2024/04/14 05:39:02;;;;;;;12.35;2.22;;;;;;;11.83;54.81;101949.50;5366241;26;20459;-56
2024/04/14 05:41:27;;;;;;;7.93;1.70;;;;;;;11.75;54.58;101955.44;5377569;26;20001;-53
2024/04/14 05:43:53;;;;;;;12.88;2.35;;;;;;;11.81;54.84;101960.28;5386946;26;20019;-56
2024/04/14 05:46:19;;;;;;;16.02;1.77;;;;;;;11.80;54.27;101955.06;5367488;26;20074;-55
2024/04/14 05:48:44;;;;;;;8.70;1.60;;;;;;;12.11;53.23;101962.47;5312028;26;20024;-53
2024/04/14 05:51:10;;;;;;;10.43;1.80;;;;;;;12.24;52.47;101968.56;5376129;26;20491;-51
2024/04/14 05:53:36;;;;;;;12.88;2.72;;;;;;;11.89;53.99;101965.06;5365120;26;20005;-59
2024/04/14 05:56:01;;;;;;;11.20;1.70;;;;;;;12.16;53.59;101964.78;5366264;26;20005;-54
2024/04/14 05:58:27;;;;;;;11.30;2.40;;;;;;;12.18;52.37;101968.19;5361843;26;20704;-53
2024/04/14 06:00:53;;;;;;;12.75;2.55;;;;;;;11.85;53.09;101971.63;5364179;26;20017;-56
2024/04/14 06:03:19;;;;;;;8.45;1.55;;;;;;;11.91;53.31;101969.34;5397161;26;20036;-53
2024/04/14 06:05:48;;;;;;;12.00;2.40;;;;;;;12.14;52.45;101972.03;5368369;26;20004;-54
2024/04/14 06:08:14;;;;;;;9.40;1.65;;;;;;;11.89;52.84;101975.75;5361792;26;20010;-53
2024/04/14 06:10:40;;;;;;;10.13;2.33;;;;;;;11.69;52.50;101979.94;5337533;26;20396;-55
2024/04/14 06:13:06;;;;;;;17.73;2.30;;;;;;;12.27;52.14;101980.81;5340750;26;20508;-56
2024/04/14 06:15:31;;;;;;;13.48;2.22;;;;;;;12.29;51.63;101984.22;5369339;26;20373;-54
2024/04/14 06:17:57;;;;;;;9.25;1.67;;;;;;;11.97;52.47;101984.03;5353768;26;20362;-54
2024/04/14 06:20:23;;;;;;;11.35;1.77;;;;;;;12.48;51.24;101997.00;5363156;26;20344;-58
2024/04/14 06:22:48;;;;;;;13.73;2.47;;;;;;;12.04;50.82;101997.78;5350586;26;20071;-55
2024/04/14 06:25:14;;;;;;;10.20;1.38;;;;;;;12.07;50.60;102001.06;5398178;26;20427;-52
2024/04/14 06:27:40;;;;;;;8.57;1.67;;;;;;;11.64;52.16;101999.94;5373252;26;20013;-56
2024/04/14 06:30:07;;;;;;;18.00;3.03;;;;;;;11.69;51.32;102001.28;5412737;26;20012;-56
2024/04/14 06:32:33;;;;;;;12.10;3.05;;;;;;;11.97;50.28;101997.41;5362816;26;20015;-58
2024/04/14 06:34:59;;;;;;;5.80;1.50;;;;;;;12.27;49.14;102010.22;5388728;26;20004;-55
2024/04/14 06:37:25;;;;;;;10.63;1.77;;;;;;;11.62;49.73;102009.88;5368532;26;20015;-53
2024/04/14 06:39:51;;;;;;;10.88;1.70;;;;;;;11.77;50.26;102014.06;5357310;26;19997;-55
2024/04/14 06:42:17;;;;;;;10.40;1.52;;;;;;;11.75;48.73;102014.19;5389207;26;20011;-52
2024/04/14 06:44:43;;;;;;;11.82;1.52;;;;;;;12.10;49.17;102008.00;5367482;26;20000;-54
2024/04/14 06:47:08;;;;;;;8.50;1.90;;;;;;;12.39;47.71;102011.97;5387271;26;20000;-56
2024/04/14 06:49:34;;;;;;;7.22;1.63;;;;;;;12.46;47.66;102015.03;5364038;26;20015;-52
2024/04/14 06:52:00;;;;;;;9.57;1.50;;;;;;;12.61;46.99;102019.19;5350385;26;20004;-56
2024/04/14 06:54:28;;;;;;;10.50;2.28;;;;;;;12.41;47.41;102022.53;5352899;26;20065;-58
2024/04/14 06:56:54;;;;;;;6.93;1.20;;;;;;;12.11;47.37;102018.59;5371316;26;20335;-55
2024/04/14 06:59:20;;;;;;;11.93;1.88;;;;;;;12.42;47.04;102019.75;5382818;26;20036;-54
2024/04/14 07:01:45;;;;;;;16.10;1.90;;;;;;;12.22;46.02;102017.75;5362336;26;20173;-55
2024/04/14 07:04:11;;;;;;;12.60;1.90;;;;;;;12.12;46.84;102030.13;5384276;26;20001;-50
2024/04/14 07:06:38;;;;;;;11.65;2.20;;;;;;;12.57;45.57;102029.25;5377744;26;20023;-56
2024/04/14 07:09:04;;;;;;;8.13;1.80;;;;;;;12.15;46.46;102032.53;5367386;26;20008;-53
2024/04/14 07:11:29;;;;;;;7.78;1.92;;;;;;;12.34;45.93;102039.03;5367383;26;20000;-55
2024/04/14 07:13:55;;;;;;;8.38;1.50;;;;;;;12.26;46.34;102030.75;5366162;26;20004;-57
2024/04/14 07:16:21;;;;;;;13.50;1.90;;;;;;;12.46;45.65;102031.91;5390547;26;20073;-53
2024/04/14 07:18:47;;;;;;;10.20;1.70;;;;;;;12.20;45.92;102041.06;5367975;26;20040;-54
2024/04/14 07:21:13;;;;;;;8.60;1.45;;;;;;;12.76;44.85;102040.25;5368057;26;20000;-55
2024/04/14 07:23:39;;;;;;;8.23;2.28;;;;;;;12.81;44.17;102036.38;5340206;26;20015;-57
2024/04/14 07:26:05;;;;;;;11.65;1.83;;;;;;;12.96;43.72;102036.00;5353350;26;20035;-55
2024/04/14 07:28:30;;;;;;;7.60;1.38;;;;;;;13.20;44.00;102041.22;5366294;26;20046;-50
2024/04/14 07:30:56;;;;;;;12.07;1.30;;;;;;;13.05;43.75;102043.31;5366260;26;20000;-55
2024/04/14 07:33:22;;;;;;;9.30;1.83;;;;;;;12.84;43.00;102047.66;5362876;26;20222;-55
2024/04/14 07:35:48;;;;;;;10.32;1.45;;;;;;;12.40;44.19;102040.38;5343220;26;20305;-57
2024/04/14 07:38:14;;;;;;;8.77;1.48;;;;;;;12.75;44.43;102043.03;5356300;26;20013;-53
2024/04/14 07:40:41;;;;;;;13.48;2.20;;;;;;;13.14;42.76;102033.69;5359781;26;20000;-56
2024/04/14 07:43:07;;;;;;;8.73;1.80;;;;;;;12.99;43.39;102045.63;5365996;26;20004;-55
2024/04/14 07:45:35;;;;;;;8.13;1.15;;;;;;;12.51;43.29;102039.56;5367684;26;20001;-57
2024/04/14 07:48:00;;;;;;;11.88;1.55;;;;;;;12.11;43.53;102045.31;5364828;26;20000;-54
2024/04/14 07:50:26;;;;;;;6.93;1.38;;;;;;;13.22;42.46;102041.94;5361136;26;20015;-51
2024/04/14 07:52:52;;;;;;;7.82;1.40;;;;;;;12.74;42.19;102036.81;5363449;26;20004;-54
2024/04/14 07:55:18;;;;;;;10.65;1.63;;;;;;;13.50;41.82;102040.53;5347315;26;20008;-53
2024/04/14 07:57:43;;;;;;;10.60;2.45;;;;;;;13.33;41.49;102039.25;5360743;26;20005;-50
2024/04/14 08:00:09;;;;;;;6.68;1.30;;;;;;;13.91;40.33;102051.41;5352100;26;20417;-55
2024/04/14 08:02:38;;;;;;;8.13;1.73;;;;;;;13.91;40.05;102050.56;5359465;26;20443;-55
2024/04/14 08:05:04;;;;;;;7.43;1.40;;;;;;;12.80;41.37;102056.91;5369291;26;20000;-55
2024/04/14 08:07:30;;;;;;;8.88;1.30;;;;;;;13.49;40.58;102055.75;5365486;26;20000;-52
2024/04/14 08:09:55;;;;;;;8.13;1.20;;;;;;;13.11;40.21;102066.91;5367090;26;20012;-55
2024/04/14 08:12:23;;;;;;;4.90;1.10;;;;;;;12.96;41.08;102061.91;5365944;26;20028;-51
2024/04/14 08:14:49;;;;;;;7.70;1.10;;;;;;;12.98;39.61;102059.97;5374974;26;20015;-56
2024/04/14 08:17:14;;;;;;;7.78;1.77;;;;;;;13.10;39.34;102067.00;5353010;26;20001;-54
2024/04/14 08:19:40;;;;;;;8.88;1.52;;;;;;;12.19;39.92;102058.09;5380457;26;20019;-49
2024/04/14 08:22:06;;;;;;;8.32;1.17;;;;;;;13.08;39.23;102040.34;5358547;26;20041;-54
2024/04/14 08:24:32;;;;;;;8.25;1.17;;;;;;;13.15;40.04;102046.94;5367147;26;20438;-56
2024/04/14 08:26:57;;;;;;;7.35;1.30;;;;;;;13.64;38.42;102039.44;5371541;26;20016;-56
2024/04/14 08:29:25;;;;;;;9.50;1.55;;;;;;;13.73;37.87;102036.88;5368861;26;20374;-55
2024/04/14 08:31:51;;;;;;;6.88;1.42;;;;;;;13.65;38.57;102049.19;5370264;26;20355;-58
2024/04/14 08:34:17;;;;;;;6.30;1.73;;;;;;;12.64;39.38;102049.22;5392096;26;20008;-55
2024/04/14 08:36:43;;;;;;;7.45;1.95;;;;;;;12.99;39.02;102054.50;5358464;26;20000;-51
2024/04/14 08:39:09;;;;;;;8.18;1.33;;;;;;;12.77;39.22;102047.31;5341874;26;20000;-55
2024/04/14 08:41:41;;;;;;;10.85;1.60;;;;;;;13.00;39.48;102060.69;5311385;26;20448;-55
2024/04/14 08:44:11;;;;;;;6.25;1.35;;;;;;;13.18;38.64;102051.19;5380534;26;20023;-56
2024/04/14 08:46:40;;;;;;;6.47;1.08;;;;;;;13.19;39.00;102050.22;5368037;26;20016;-49
2024/04/14 08:49:07;;;;;;;6.90;1.45;;;;;;;13.49;38.64;102053.09;5400039;26;20351;-54
2024/04/14 08:51:34;;;;;;;4.10;1.08;;;;;;;14.11;37.82;102052.41;5368313;26;20004;-55
2024/04/14 08:54:00;;;;;;;6.88;1.35;;;;;;;14.52;37.68;102050.78;5366558;26;20016;-55
2024/04/14 08:56:27;;;;;;;9.18;1.38;;;;;;;14.02;38.03;102053.22;5374123;26;20020;-55
2024/04/14 08:59:04;;;;;;;9.45;1.60;;;;;;;15.00;37.63;102051.88;5360824;26;20008;-51
2024/04/14 09:01:30;;;;;;;4.50;1.13;;;;;;;14.28;37.81;102059.91;5384616;26;20000;-52
2024/04/14 09:03:56;;;;;;;7.05;1.20;;;;;;;13.44;38.83;102054.44;5369298;26;20004;-57
2024/04/14 09:06:23;;;;;;;7.03;1.17;;;;;;;13.14;40.20;102055.09;5361618;26;20015;-51
2024/04/14 09:08:48;;;;;;;7.28;1.33;;;;;;;13.17;38.50;102050.34;5365198;26;20001;-52
2024/04/14 09:11:14;;;;;;;7.00;1.10;;;;;;;13.36;37.63;102044.34;5377691;26;20020;-50
2024/04/14 09:13:40;;;;;;;5.22;1.50;;;;;;;13.50;37.94;102043.22;5362998;26;20004;-55
2024/04/14 09:16:08;;;;;;;10.10;1.70;;;;;;;13.50;38.62;102046.75;5373115;26;20000;-52
2024/04/14 09:18:36;;;;;;;10.10;1.40;;;;;;;13.93;39.21;102054.81;5368674;26;20000;-57
2024/04/14 09:21:02;;;;;;;7.15;1.73;;;;;;;14.31;39.62;102048.09;5380930;26;20395;-54
2024/04/14 09:23:28;;;;;;;9.40;1.50;;;;;;;14.59;38.47;102049.25;5368508;26;20325;-49
2024/04/14 09:25:54;;;;;;;6.68;1.33;;;;;;;14.74;37.37;102045.25;5368294;26;20000;-56
2024/04/14 09:28:19;;;;;;;8.55;1.05;;;;;;;13.73;37.47;102058.31;5360732;26;20011;-53
2024/04/14 09:30:45;;;;;;;9.52;1.30;;;;;;;13.99;37.74;102064.19;5367637;26;20435;-56
2024/04/14 09:33:11;;;;;;;9.88;1.70;;;;;;;14.15;36.79;102061.94;5370260;26;20055;-52
2024/04/14 09:35:37;;;;;;;6.20;1.75;;;;;;;14.73;36.01;102060.50;5360798;26;20012;-54
2024/04/14 09:38:08;;;;;;;11.15;1.52;;;;;;;14.16;37.19;102055.59;5371013;26;20540;-56
2024/04/14 09:40:35;;;;;;;7.65;1.40;;;;;;;14.08;38.92;102063.44;5360894;26;19996;-55
2024/04/14 09:43:02;;;;;;;8.57;1.83;;;;;;;13.90;39.04;102067.66;5364861;26;20004;-56
2024/04/14 09:45:30;;;;;;;8.80;1.80;;;;;;;13.41;39.53;102068.94;5367113;26;20140;-53
2024/04/14 09:47:56;;;;;;;10.00;1.55;;;;;;;13.52;40.20;102071.59;5368811;26;20004;-48
2024/04/14 09:50:23;;;;;;;3.72;1.48;;;;;;;13.21;39.48;102068.84;5369766;26;20004;-55
2024/04/14 09:52:49;;;;;;;11.93;2.47;;;;;;;14.36;38.88;102061.94;5370408;26;20015;-55
2024/04/14 09:55:16;;;;;;;4.82;1.30;;;;;;;14.15;37.61;102051.22;5369536;26;20454;-55
2024/04/14 09:57:42;;;;;;;6.22;2.25;;;;;;;14.40;36.72;102055.31;5365158;26;21904;-57
2024/04/14 10:00:09;;;;;;;6.38;1.80;;;;;;;14.80;35.84;102065.34;5363707;26;20004;-53
2024/04/14 10:02:39;;;;;;;5.30;1.38;;;;;;;14.37;35.07;102069.00;5389735;26;20001;-57
2024/04/14 10:05:09;;;;;;;8.23;1.15;;;;;;;13.25;37.17;102072.97;5368802;26;20004;-57
2024/04/14 10:07:38;;;;;;;9.38;1.70;;;;;;;13.83;35.58;102063.78;5306040;26;20559;-56
2024/04/14 10:10:07;;;;;;;7.18;2.25;;;;;;;14.01;35.91;102078.31;5398381;26;20042;-55
2024/04/14 10:12:33;;;;;;;5.85;1.02;;;;;;;14.55;35.23;102082.72;5368399;26;20015;-51
2024/04/14 10:15:04;;;;;;;4.45;1.15;;;;;;;14.30;32.73;102078.56;5359326;26;20012;-57
2024/04/14 10:17:29;;;;;;;;;;;;;;;15.09;31.95;102091.34;5373150;26;20011;-55
2024/04/14 10:20:06;;;;;;;5.07;1.13;;;;;;;14.23;34.18;102093.47;5368051;26;19926;-51
2024/04/14 10:22:36;;;;;;;6.32;0.88;;;;;;;14.13;35.69;102095.19;5366667;26;20024;-50
2024/04/14 10:25:02;;;;;;;9.00;1.58;;;;;;;14.51;35.63;102086.66;5366252;26;20001;-53
2024/04/14 10:27:34;;;;;;;8.32;1.33;;;;;;;15.23;34.79;102078.53;5359864;26;20005;-52
2024/04/14 10:30:05;;;;;;;4.78;1.15;;;;;;;15.80;34.37;102069.81;5352907;26;20071;-51
2024/04/14 10:32:33;;;;;;;7.32;1.35;;;;;;;15.16;34.16;102075.56;5356858;26;20462;-53
2024/04/14 10:34:59;;;;;;;7.47;1.15;;;;;;;13.86;37.07;102079.59;5389594;26;20008;-54
2024/04/14 10:37:26;;;;;;;8.07;1.30;;;;;;;13.88;37.84;102083.84;5361226;26;20551;-53
2024/04/14 10:39:53;;;;;;;8.00;1.40;;;;;;;13.39;39.59;102086.09;5363839;26;20007;-55
2024/04/14 10:42:20;;;;;;;7.10;1.33;;;;;;;14.27;37.47;102079.66;5359943;26;20445;-55
2024/04/14 10:44:46;;;;;;;8.32;1.25;;;;;;;12.60;38.01;102093.22;5367691;26;20290;-51
2024/04/14 10:47:19;;;;;;;6.68;1.45;;;;;;;13.33;36.96;102076.75;5363177;26;20599;-54
2024/04/14 10:49:47;;;;;;;5.18;0.90;;;;;;;14.13;36.93;102082.66;5366472;26;20367;-55
2024/04/14 10:52:14;;;;;;;5.63;1.13;;;;;;;14.10;35.15;102088.28;5368248;26;20084;-54
2024/04/14 10:54:41;;;;;;;8.25;1.30;;;;;;;14.12;35.00;102080.09;5377065;26;20019;-56
2024/04/14 10:57:11;;;;;;;5.30;1.30;;;;;;;13.70;35.05;102071.09;5364010;26;20015;-57
2024/04/14 10:59:37;;;;;;;;;;;;;;;14.40;34.87;102074.09;5364204;26;20352;-54
2024/04/14 11:02:04;;;;;;;5.40;1.13;;;;;;;14.83;33.96;102076.69;5359306;26;19933;-52
2024/04/14 11:04:34;;;;;;;4.30;1.08;;;;;;;15.16;34.96;102074.69;5362318;26;20020;-55
2024/04/14 11:07:01;;;;;;;5.60;1.40;;;;;;;14.75;34.53;102065.75;5341269;26;20026;-58
2024/04/14 11:09:28;;;;;;;6.15;1.88;;;;;;;15.80;33.13;102061.75;5344815;26;20004;-55
2024/04/14 11:11:59;;;;;;;6.70;1.60;;;;;;;15.23;33.71;102067.81;5401952;26;20000;-54
2024/04/14 11:14:25;;;;;;;5.50;1.20;;;;;;;14.85;35.02;102066.66;5364927;26;20011;-52
2024/04/14 11:16:50;;;;;;;8.60;1.30;;;;;;;13.25;37.38;102052.41;5357392;26;20000;-51